Time;durP1;ratioP1;P1;durP2;ratioP2;P2;SDS_P1;SDS_P2;PMS_P1;PMS_P2;Temp;Humidity;BMP_temperature;BMP_pressure;BME280_temperature;BME280_humidity;BME280_pressure;Samples;Min_cycle;Max_cycle;Signal;HPM_P1;HPM_P2
2022/04/28 00:00:19;;;;;;;0.10;0.10;;;10.30;99.90;;;;;;5035482;28;20203;-71
2022/04/28 00:02:47;;;;;;;0.10;0.10;;;;;;;;;;5042686;28;20199;-71
2022/04/28 00:05:14;;;;;;;0.10;0.10;;;;;;;;;;5052965;28;20314;-70
2022/04/28 00:07:42;;;;;;;0.10;0.10;;;;;;;;;;5046144;28;20222;-71
2022/04/28 00:10:11;;;;;;;0.10;0.10;;;;;;;;;;5054014;28;20198;-71
2022/04/28 00:12:39;;;;;;;0.10;0.10;;;;;;;;;;5039068;28;20226;-71
2022/04/28 00:15:06;;;;;;;0.10;0.10;;;;;;;;;;5041083;28;20226;-71
2022/04/28 00:17:34;;;;;;;0.10;0.10;;;;;;;;;;5061087;28;20198;-71
2022/04/28 00:20:01;;;;;;;0.10;0.10;;;;;;;;;;5049430;28;20278;-71
2022/04/28 00:22:30;;;;;;;0.10;0.10;;;;;;;;;;5048881;28;20199;-71
2022/04/28 00:24:57;;;;;;;0.10;0.10;;;;;;;;;;5038986;28;20291;-71
2022/04/28 00:27:26;;;;;;;0.10;0.10;;;;;;;;;;5049377;28;20221;-71
2022/04/28 00:29:53;;;;;;;0.10;0.10;;;;;;;;;;5041634;28;20194;-71
2022/04/28 00:32:20;;;;;;;0.10;0.10;;;;;;;;;;5041627;28;20629;-71
2022/04/28 00:34:48;;;;;;;0.10;0.10;;;;;;;;;;5035226;28;20690;-71
2022/04/28 00:37:15;;;;;;;0.10;0.10;;;;;;;;;;5057779;28;20206;-71
2022/04/28 00:39:43;;;;;;;0.10;0.10;;;;;;;;;;5042048;28;20687;-71
2022/04/28 00:42:11;;;;;;;0.10;0.10;;;;;;;;;;5053056;28;20633;-71
2022/04/28 00:44:40;;;;;;;0.10;0.10;;;;;;;;;;5062044;28;20644;-71
2022/04/28 00:47:09;;;;;;;0.10;0.10;;;;;;;;;;5046896;28;21164;-71
2022/04/28 00:52:21;;;;;;;0.10;0.10;;;;;;;;;;5032432;28;20617;-71
2022/04/28 00:54:50;;;;;;;0.10;0.10;;;;;;;;;;5043112;28;20751;-71
2022/04/28 00:57:18;;;;;;;0.00;0.00;;;;;;;;;;5041261;28;20662;-71
2022/04/28 00:59:48;;;;;;;0.10;0.10;;;;;;;;;;5044152;28;20685;-71
2022/04/28 01:02:16;;;;;;;0.10;0.10;;;;;;;;;;5048701;28;20630;-71
2022/04/28 01:04:44;;;;;;;0.10;0.10;;;;;;;;;;5040973;28;20660;-71
2022/04/28 01:07:11;;;;;;;0.10;0.10;;;;;;;;;;5036918;28;20653;-71
2022/04/28 01:09:41;;;;;;;0.10;0.10;;;;;;;;;;5040042;28;20656;-71
2022/04/28 01:12:15;;;;;;;0.10;0.10;;;;;;;;;;5041597;28;20613;-71
2022/04/28 01:14:45;;;;;;;0.10;0.10;;;;;;;;;;5037424;28;20646;-71
2022/04/28 01:17:15;;;;;;;0.10;0.10;;;;;;;;;;5041586;28;20672;-73
2022/04/28 01:19:48;;;;;;;0.10;0.10;;;;;;;;;;5046735;28;21247;-71
2022/04/28 01:22:18;;;;;;;0.10;0.10;;;;;;;;;;5047161;28;20621;-71
2022/04/28 01:24:46;;;;;;;0.10;0.10;;;;;;;;;;5043473;28;20668;-71
2022/04/28 01:27:14;;;;;;;0.10;0.10;;;;;;;;;;5042716;28;20608;-71
2022/04/28 01:29:42;;;;;;;0.10;0.10;;;;;;;;;;5036688;28;20665;-71
2022/04/28 01:32:10;;;;;;;0.10;0.10;;;;;;;;;;5035976;28;20727;-71
2022/04/28 01:34:42;;;;;;;0.10;0.10;;;;;;;;;;5039483;28;20706;-71
2022/04/28 01:37:09;;;;;;;0.10;0.10;;;;;;;;;;5033269;28;20737;-71
2022/04/28 01:39:39;;;;;;;0.10;0.10;;;;;;;;;;5047623;28;20628;-71
2022/04/28 01:42:06;;;;;;;0.10;0.10;;;;;;;;;;5063360;28;20677;-71
2022/04/28 01:44:34;;;;;;;0.10;0.10;;;;;;;;;;5038216;28;20651;-71
2022/04/28 01:47:01;;;;;;;0.10;0.10;;;;;;;;;;5047515;28;20673;-71
2022/04/28 01:49:51;;;;;;;0.10;0.10;;;;;;;;;;5024988;28;20651;-70
2022/04/28 01:55:45;;;;;;;0.10;0.10;;;;;;;;;;5036231;28;20602;-70
2022/04/28 01:58:31;;;;;;;0.10;0.10;;;;;;;;;;5038782;28;20671;-70
2022/04/28 02:01:28;;;;;;;0.10;0.10;;;;;;;;;;5027231;28;20629;-70
2022/04/28 02:03:56;;;;;;;0.10;0.10;;;;;;;;;;5046467;28;20648;-70
2022/04/28 02:06:25;;;;;;;0.10;0.10;;;8.20;99.90;;;;;;5040879;28;20632;-71
2022/04/28 02:08:53;;;;;;;0.10;0.10;;;8.00;99.90;;;;;;5034360;28;20642;-71
2022/04/28 02:11:21;;;;;;;0.10;0.10;;;7.90;99.90;;;;;;5039832;28;20628;-70
2022/04/28 02:14:17;;;;;;;0.10;0.10;;;7.90;99.90;;;;;;5041989;28;20766;-70
2022/04/28 02:17:17;;;;;;;0.10;0.10;;;7.90;99.90;;;;;;5037924;28;20639;-70
2022/04/28 02:19:44;;;;;;;0.10;0.10;;;;;;;;;;5047720;28;20623;-71
2022/04/28 02:22:12;;;;;;;0.10;0.10;;;7.80;99.90;;;;;;5057461;28;20613;-71
2022/04/28 02:24:39;;;;;;;0.10;0.10;;;7.70;99.90;;;;;;5035622;28;20648;-71
2022/04/28 02:27:08;;;;;;;0.10;0.10;;;;;;;;;;5037795;28;20720;-71
2022/04/28 02:29:36;;;;;;;0.10;0.10;;;;;;;;;;5048877;28;20671;-71
2022/04/28 02:32:04;;;;;;;0.10;0.10;;;;;;;;;;5039668;28;20648;-71
2022/04/28 02:34:31;;;;;;;0.10;0.10;;;;;;;;;;5046115;28;20717;-71
2022/04/28 02:36:59;;;;;;;0.10;0.10;;;;;;;;;;5041207;28;20651;-71
2022/04/28 02:39:27;;;;;;;0.10;0.10;;;;;;;;;;5043379;28;20617;-71
2022/04/28 02:41:57;;;;;;;0.10;0.10;;;;;;;;;;5039119;28;20655;-71
2022/04/28 02:44:25;;;;;;;0.10;0.10;;;;;;;;;;5047885;28;20669;-71
2022/04/28 02:46:53;;;;;;;0.10;0.10;;;;;;;;;;5046487;28;20625;-71
2022/04/28 02:49:32;;;;;;;0.10;0.10;;;;;;;;;;5042642;28;21317;-71
2022/04/28 02:52:05;;;;;;;0.10;0.10;;;;;;;;;;5044321;28;20727;-71
2022/04/28 02:54:33;;;;;;;0.10;0.10;;;;;;;;;;5044698;28;20769;-71
2022/04/28 02:57:00;;;;;;;0.10;0.10;;;;;;;;;;5043668;28;20631;-72
2022/04/28 02:59:29;;;;;;;0.10;0.10;;;;;;;;;;5048398;28;20625;-69
2022/04/28 03:01:56;;;;;;;0.10;0.10;;;;;;;;;;5043961;28;20632;-70
2022/04/28 03:04:25;;;;;;;0.10;0.10;;;;;;;;;;5061817;28;20736;-71
2022/04/28 03:12:27;;;;;;;0.10;0.10;;;;;;;;;;5045464;28;20628;-71
2022/04/28 03:15:06;;;;;;;0.10;0.10;;;;;;;;;;5039939;28;20785;-71
2022/04/28 03:17:34;;;;;;;0.10;0.10;;;;;;;;;;5054514;28;20657;-70
2022/04/28 03:20:01;;;;;;;0.13;0.13;;;;;;;;;;5040705;28;20630;-70
2022/04/28 03:22:29;;;;;;;0.10;0.10;;;;;;;;;;5048502;28;20629;-71
2022/04/28 03:24:56;;;;;;;0.10;0.10;;;;;;;;;;5044539;28;20766;-71
2022/04/28 03:27:27;;;;;;;0.10;0.10;;;;;;;;;;5050225;28;20678;-71
2022/04/28 03:29:55;;;;;;;0.10;0.10;;;;;;;;;;5044806;28;20715;-71
2022/04/28 03:32:23;;;;;;;0.10;0.10;;;;;;;;;;5041002;28;21263;-71
2022/04/28 03:35:05;;;;;;;0.10;0.10;;;;;;;;;;5039669;28;20652;-71
2022/04/28 03:37:33;;;;;;;0.10;0.10;;;;;;;;;;5043300;28;20956;-71
2022/04/28 03:40:00;;;;;;;0.10;0.10;;;;;;;;;;5043554;28;20674;-71
2022/04/28 03:42:30;;;;;;;0.10;0.10;;;;;;;;;;5040366;28;20646;-71
2022/04/28 03:44:59;;;;;;;0.10;0.10;;;;;;;;;;5037418;28;20742;-71
2022/04/28 03:47:32;;;;;;;0.10;0.10;;;;;;;;;;5042771;28;20655;-71
2022/04/28 03:50:00;;;;;;;0.10;0.10;;;;;;;;;;5059355;28;20739;-71
2022/04/28 03:52:27;;;;;;;0.10;0.10;;;;;;;;;;5064972;28;20622;-71
2022/04/28 03:54:54;;;;;;;0.10;0.10;;;;;;;;;;5036986;28;20683;-71
2022/04/28 03:57:23;;;;;;;0.10;0.10;;;;;;;;;;5044952;28;20629;-71
2022/04/28 03:59:51;;;;;;;0.20;0.20;;;;;;;;;;5045734;28;20632;-72
2022/04/28 04:02:43;;;;;;;0.10;0.10;;;;;;;;;;5061819;28;20592;-71
2022/04/28 04:05:12;;;;;;;0.10;0.10;;;;;;;;;;5041592;28;20666;-76
2022/04/28 04:07:39;;;;;;;0.10;0.10;;;;;;;;;;5044612;28;20629;-70
2022/04/28 04:10:30;;;;;;;0.10;0.10;;;;;;;;;;5069329;28;20648;-69
2022/04/28 04:13:00;;;;;;;0.10;0.10;;;;;;;;;;5046978;28;21246;-69
2022/04/28 04:15:27;;;;;;;0.10;0.10;;;;;;;;;;5063042;28;20751;-69
2022/04/28 04:18:20;;;;;;;0.10;0.10;;;;;;;;;;5062762;28;20694;-69
2022/04/28 04:20:58;;;;;;;0.10;0.10;;;;;;;;;;5045077;28;20623;-68
2022/04/28 04:23:26;;;;;;;0.10;0.10;;;;;;;;;;5046706;28;20682;-69
2022/04/28 04:25:54;;;;;;;0.10;0.10;;;;;;;;;;5057640;28;20712;-70
2022/04/28 04:28:23;;;;;;;0.10;0.10;;;;;;;;;;5047825;28;20704;-69
2022/04/28 04:33:57;;;;;;;0.10;0.10;;;;;;;;;;5040792;28;20651;-68
2022/04/28 04:36:24;;;;;;;0.10;0.10;;;;;;;;;;5046817;28;20613;-66
2022/04/28 04:38:52;;;;;;;0.10;0.10;;;;;;;;;;5045744;28;20651;-68
2022/04/28 04:41:20;;;;;;;0.10;0.10;;;;;;;;;;5047923;28;20624;-66
2022/04/28 04:43:47;;;;;;;0.20;0.20;;;;;;;;;;5042385;28;20691;-71
2022/04/28 04:46:14;;;;;;;0.10;0.10;;;;;;;;;;5039087;28;20640;-73
2022/04/28 04:48:42;;;;;;;0.10;0.10;;;;;;;;;;5061911;28;20613;-75
2022/04/28 04:51:36;;;;;;;0.10;0.10;;;;;;;;;;5032853;28;20637;-76
2022/04/28 04:54:23;;;;;;;0.10;0.10;;;;;;;;;;5039277;28;20645;-77
2022/04/28 04:56:52;;;;;;;0.10;0.10;;;;;;;;;;5038482;28;20747;-72
2022/04/28 04:59:20;;;;;;;0.10;0.10;;;;;;;;;;5039290;28;20621;-73
2022/04/28 05:01:47;;;;;;;0.10;0.10;;;;;;;;;;5059223;28;20604;-72
2022/04/28 05:04:33;;;;;;;0.10;0.10;;;;;;;;;;5057152;28;20674;-73
2022/04/28 05:07:35;;;;;;;0.10;0.10;;;;;;;;;;5040749;28;20620;-71
2022/04/28 05:10:02;;;;;;;0.10;0.10;;;;;;;;;;5039910;28;20652;-68
2022/04/28 05:12:31;;;;;;;0.10;0.10;;;;;;;;;;5043068;28;20624;-68
2022/04/28 05:15:28;;;;;;;0.10;0.10;;;;;;;;;;5038901;28;21236;-68
2022/04/28 05:18:10;;;;;;;0.10;0.10;;;;;;;;;;5034678;28;20638;-69
2022/04/28 05:20:53;;;;;;;0.10;0.10;;;;;;;;;;5046581;28;20664;-69
2022/04/28 05:23:44;;;;;;;0.20;0.20;;;;;;;;;;5059537;28;20740;-68
2022/04/28 05:26:31;;;;;;;0.10;0.10;;;;;;;;;;5059131;28;20604;-67
2022/04/28 05:29:04;;;;;;;0.10;0.10;;;;;;;;;;5050655;28;20708;-70
2022/04/28 05:31:50;;;;;;;0.10;0.10;;;;;;;;;;5058955;28;20592;-70
2022/04/28 05:34:31;;;;;;;0.10;0.10;;;;;;;;;;5058334;28;20651;-70
2022/04/28 05:37:02;;;;;;;0.10;0.10;;;;;;;;;;5057964;28;20608;-70
2022/04/28 05:39:31;;;;;;;0.10;0.10;;;;;;;;;;5062002;28;20597;-69
2022/04/28 05:41:58;;;;;;;0.10;0.10;;;;;;;;;;5042227;28;20195;-69
2022/04/28 05:47:13;;;;;;;0.10;0.10;;;;;;;;;;5043445;28;20631;-70
2022/04/28 05:49:41;;;;;;;0.10;0.10;;;;;;;;;;5047098;28;20325;-70
2022/04/28 05:52:10;;;;;;;0.10;0.10;;;;;;;;;;5051600;28;20661;-71
2022/04/28 05:54:40;;;;;;;0.10;0.10;;;;;;;;;;5037089;28;20744;-71
2022/04/28 05:57:11;;;;;;;0.10;0.10;;;;;;;;;;5057861;28;20198;-71
2022/04/28 05:59:39;;;;;;;0.10;0.10;;;;;;;;;;5043019;28;20201;-71
2022/04/28 06:02:39;;;;;;;0.10;0.10;;;;;;;;;;5022381;28;20612;-70
2022/04/28 06:05:18;;;;;;;0.10;0.10;;;;;;;;;;5042106;28;20222;-70
2022/04/28 06:07:45;;;;;;;0.10;0.10;;;;;;;;;;5052251;28;20209;-71
2022/04/28 06:10:15;;;;;;;0.10;0.10;;;;;;;;;;5036536;28;20218;-70
2022/04/28 06:12:43;;;;;;;0.10;0.10;;;;;;;;;;5041123;28;20197;-70
2022/04/28 06:15:11;;;;;;;0.10;0.10;;;;;;;;;;5052986;28;20770;-71
2022/04/28 06:18:08;;;;;;;0.10;0.10;;;;;;;;;;5048875;28;20208;-71
2022/04/28 06:20:36;;;;;;;0.10;0.10;;;;;;;;;;5039899;28;20225;-70
2022/04/28 06:23:12;;;;;;;0.10;0.10;;;;;;;;;;5044669;28;20202;-67
2022/04/28 06:25:47;;;;;;;0.10;0.10;;;;;;;;;;5041252;28;20276;-70
2022/04/28 06:28:14;;;;;;;0.10;0.10;;;;;;;;;;5044662;28;20672;-70
2022/04/28 06:30:45;;;;;;;0.10;0.10;;;;;;;;;;5038518;28;20214;-69
2022/04/28 06:33:41;;;;;;;0.10;0.10;;;;;;;;;;5042967;28;20250;-70
2022/04/28 06:36:16;;;;;;;0.10;0.10;;;;;;;;;;5037853;28;20209;-70
2022/04/28 06:38:47;;;;;;;0.10;0.10;;;;;;;;;;5035636;28;20195;-71
2022/04/28 06:41:16;;;;;;;0.10;0.10;;;;;;;;;;5037601;28;20665;-70
2022/04/28 06:43:51;;;;;;;0.10;0.10;;;;;;;;;;5039017;28;20234;-70
2022/04/28 06:46:31;;;;;;;0.10;0.10;;;;;;;;;;5060884;28;20286;-69
2022/04/28 06:48:58;;;;;;;0.10;0.10;;;;;;;;;;5063840;28;20262;-70
2022/04/28 06:51:44;;;;;;;0.10;0.10;;;;;;;;;;5059312;28;20228;-71
2022/04/28 06:54:19;;;;;;;0.10;0.10;;;;;;;;;;5042025;28;20232;-70
2022/04/28 06:56:49;;;;;;;0.10;0.10;;;;;;;;;;5041179;28;20199;-70
2022/04/28 06:59:19;;;;;;;0.10;0.10;;;;;;;;;;5041590;28;20200;-69
2022/04/28 07:01:47;;;;;;;0.10;0.10;;;;;;;;;;5049660;28;20276;-69
2022/04/28 07:04:14;;;;;;;0.10;0.10;;;;;;;;;;5030895;28;20250;-70
2022/04/28 07:06:43;;;;;;;0.10;0.10;;;;;;;;;;5041249;28;20195;-70
2022/04/28 07:09:10;;;;;;;0.10;0.10;;;;;;;;;;5038423;28;20214;-70
2022/04/28 07:11:39;;;;;;;0.10;0.10;;;;;;;;;;5038369;28;20274;-70
2022/04/28 07:14:26;;;;;;;0.10;0.10;;;;;;;;;;5039804;28;20305;-70
2022/04/28 07:17:26;;;;;;;0.10;0.10;;;;;;;;;;5045030;28;20202;-71
2022/04/28 07:19:58;;;;;;;0.00;0.00;;;;;;;;;;5039348;28;20191;-70
2022/04/28 07:22:26;;;;;;;0.10;0.10;;;;;;;;;;5049821;22;20198;-75
2022/04/28 07:24:53;;;;;;;0.00;0.00;;;;;;;;;;5026550;28;20246;-75
2022/04/28 07:27:21;;;;;;;0.00;0.00;;;;;;;;;;5025390;28;20223;-75
2022/04/28 07:29:56;;;;;;;0.10;0.10;;;;;;;;;;5027861;28;20711;-75
2022/04/28 07:32:42;;;;;;;0.10;0.10;;;;;;;;;;5027054;28;20228;-75
2022/04/28 07:35:16;;;;;;;0.10;0.10;;;;;;;;;;5043396;28;20218;-75
2022/04/28 07:38:02;;;;;;;0.07;0.07;;;;;;;;;;5041891;28;20239;-75
2022/04/28 07:40:33;;;;;;;0.10;0.10;;;;;;;;;;5043742;28;20207;-75
2022/04/28 07:43:02;;;;;;;0.07;0.07;;;;;;;;;;5025907;28;20568;-75
2022/04/28 07:45:31;;;;;;;0.00;0.00;;;;;;;;;;5032502;23;20803;-70
2022/04/28 07:48:00;;;;;;;0.00;0.00;;;;;;;;;;5020836;28;20199;-70
2022/04/28 07:50:29;;;;;;;0.00;0.00;;;;;;;;;;5019436;28;20220;-69
2022/04/28 07:53:07;;;;;;;0.00;0.00;;;;;;;;;;5019536;28;20203;-70
2022/04/28 07:55:35;;;;;;;0.10;0.10;;;;;;;;;;5004158;28;20669;-70
2022/04/28 07:58:03;;;;;;;0.00;0.00;;;;;;;;;;4999097;28;20232;-70
2022/04/28 08:00:45;;;;;;;0.10;0.10;;;;;;;;;;4998980;28;20192;-71
2022/04/28 08:03:14;;;;;;;0.00;0.00;;;;;;;;;;5001026;28;20201;-71
2022/04/28 08:05:49;;;;;;;0.00;0.00;;;;;;;;;;5000983;28;20251;-70
2022/04/28 08:08:17;;;;;;;0.00;0.00;;;;;;;;;;4994500;28;20216;-71
2022/04/28 08:10:45;;;;;;;0.10;0.10;;;;;;;;;;5001674;28;20238;-70
2022/04/28 08:13:14;;;;;;;0.03;0.03;;;;;;;;;;4996989;28;20208;-70
2022/04/28 08:16:01;;;;;;;0.10;0.10;;;;;;;;;;4998784;28;20228;-70
2022/04/28 08:18:39;;;;;;;0.00;0.00;;;;;;;;;;4993087;28;20200;-70
2022/04/28 08:21:08;;;;;;;0.00;0.00;;;;;;;;;;4998998;28;20201;-70
2022/04/28 08:23:38;;;;;;;0.10;0.10;;;;;;;;;;5001139;28;20279;-70
2022/04/28 08:26:05;;;;;;;0.10;0.10;;;;;;;;;;4996680;28;20201;-70
2022/04/28 08:28:33;;;;;;;0.00;0.00;;;;;;;;;;4999930;28;20200;-70
2022/04/28 08:31:02;;;;;;;0.00;0.00;;;;;;;;;;4998511;28;20213;-70
2022/04/28 08:33:29;;;;;;;0.00;0.00;;;;;;;;;;4997606;28;20221;-70
2022/04/28 08:35:57;;;;;;;0.10;0.10;;;;;;;;;;4997555;28;20205;-70
2022/04/28 08:38:24;;;;;;;0.03;0.03;;;;;;;;;;4998298;28;20200;-70
2022/04/28 08:40:56;;;;;;;0.00;0.00;;;;;;;;;;5001332;28;20232;-70
2022/04/28 08:43:44;;;;;;;0.00;0.00;;;;;;;;;;4992842;28;20263;-70
2022/04/28 08:48:58;;;;;;;0.00;0.00;;;;;;;;;;4998228;28;20201;-71
2022/04/28 08:51:27;;;;;;;0.00;0.00;;;;;;;;;;5017002;28;20219;-70
2022/04/28 08:53:59;;;;;;;0.07;0.07;;;;;;;;;;5001623;28;20237;-70
2022/04/28 08:56:27;;;;;;;0.00;0.00;;;;;;;;;;4995277;28;20258;-70
2022/04/28 08:58:59;;;;;;;0.00;0.00;;;;;;;;;;5001789;28;20220;-70
2022/04/28 09:01:29;;;;;;;0.00;0.00;;;;;;;;;;5001621;28;20228;-70
2022/04/28 09:04:27;;;;;;;0.00;0.00;;;;;;;;;;4992168;28;20213;-70
2022/04/28 09:07:13;;;;;;;0.00;0.00;;;;;;;;;;4999493;28;20236;-70
2022/04/28 09:10:26;;;;;;;0.00;0.00;;;;;;;;;;4965872;28;20261;-70
2022/04/28 09:16:10;;;;;;;0.00;0.00;;;;;;;;;;4999343;28;20229;-71
2022/04/28 09:18:41;;;;;;;0.00;0.00;;;;;;;;;;5003034;28;20259;-70
2022/04/28 09:21:09;;;;;;;0.00;0.00;;;;;;;;;;4995896;28;20192;-69
2022/04/28 09:23:37;;;;;;;0.00;0.00;;;;;;;;;;4995298;28;20243;-69
2022/04/28 09:26:05;;;;;;;0.00;0.00;;;;;;;;;;5000583;28;20294;-70
2022/04/28 09:28:33;;;;;;;0.00;0.00;;;;;;;;;;4998611;28;20212;-70
2022/04/28 09:31:00;;;;;;;0.00;0.00;;;;;;;;;;4997673;28;20219;-70
2022/04/28 09:33:50;;;;;;;0.00;0.00;;;;;;;;;;4999643;28;20225;-70
2022/04/28 09:36:50;;;;;;;0.03;0.03;;;;;;;;;;4974289;28;20788;-70
2022/04/28 09:44:50;;;;;;;0.00;0.00;;;;;;;;;;4999457;28;20204;-69
2022/04/28 09:47:19;;;;;;;0.00;0.00;;;;;;;;;;4998122;28;20263;-70
2022/04/28 09:49:52;;;;;;;0.00;0.00;;;;;;;;;;5008520;28;20197;-69
2022/04/28 09:52:23;;;;;;;0.00;0.00;;;;;;;;;;4997236;28;20232;-71
2022/04/28 09:55:30;;;;;;;0.00;0.00;;;;;;;;;;4998078;28;20357;-71
2022/04/28 09:58:34;;;;;;;0.00;0.00;;;;;;;;;;4989096;28;20215;-71
2022/04/28 10:01:04;;;;;;;0.00;0.00;;;;;;;;;;4998359;28;20197;-70
2022/04/28 10:03:35;;;;;;;0.00;0.00;;;;;;;;;;5000234;28;20243;-69
2022/04/28 10:06:05;;;;;;;0.00;0.00;;;;;;;;;;4993542;28;20200;-70
2022/04/28 10:08:52;;;;;;;0.00;0.00;;;;;;;;;;4999099;28;20212;-70
2022/04/28 10:11:23;;;;;;;0.00;0.00;;;;;;;;;;4992791;28;20217;-70
2022/04/28 10:13:51;;;;;;;0.00;0.00;;;;;;;;;;4989011;28;20283;-70
2022/04/28 10:16:21;;;;;;;0.00;0.00;;;;;;;;;;4992907;28;20208;-69
2022/04/28 10:18:51;;;;;;;0.00;0.00;;;;;;;;;;4994969;28;20205;-70
2022/04/28 10:21:23;;;;;;;0.10;0.10;;;;;;;;;;4996860;28;20201;-69
2022/04/28 10:32:47;;;;;;;0.07;0.07;;;;;;;;;;5013135;28;20212;-70
2022/04/28 10:35:15;;;;;;;0.00;0.00;;;;;;;;;;4992141;28;20301;-71
2022/04/28 10:37:45;;;;;;;0.00;0.00;;;;;;;;;;4992816;28;20210;-71
2022/04/28 10:40:16;;;;;;;0.00;0.00;;;;;;;;;;5014014;28;20212;-70
2022/04/28 10:42:59;;;;;;;0.00;0.00;;;;;;;;;;4997252;28;20274;-70
2022/04/28 10:45:28;;;;;;;0.00;0.00;;;;;;;;;;4999093;28;20236;-70
2022/04/28 10:48:12;;;;;;;0.00;0.00;;;;;;;;;;4998883;28;20304;-71
2022/04/28 10:50:39;;;;;;;0.00;0.00;;;;;;;;;;4998995;28;20205;-70
2022/04/28 10:53:09;;;;;;;0.00;0.00;;;;;;;;;;4993119;28;20299;-70
2022/04/28 10:55:41;;;;;;;0.00;0.00;;;;;;;;;;5000440;28;20196;-70
2022/04/28 10:58:21;;;;;;;0.00;0.00;;;;;;;;;;4997238;28;20205;-70
2022/04/28 11:00:53;;;;;;;0.00;0.00;;;;;;;;;;4998900;28;20240;-70
2022/04/28 11:03:35;;;;;;;0.00;0.00;;;;;;;;;;4999700;28;20215;-71
2022/04/28 11:06:09;;;;;;;0.00;0.00;;;;;;;;;;4997782;28;20260;-71
2022/04/28 11:08:37;;;;;;;0.00;0.00;;;;;;;;;;5002168;28;20212;-70
2022/04/28 11:11:11;;;;;;;0.00;0.00;;;;;;;;;;4998283;28;20235;-71
2022/04/28 11:13:40;;;;;;;0.00;0.00;;;;;;;;;;5002728;28;20266;-69
2022/04/28 11:16:10;;;;;;;0.00;0.00;;;;;;;;;;4997714;28;20280;-68
2022/04/28 11:18:37;;;;;;;0.00;0.00;;;;;;;;;;5001718;28;20282;-71
2022/04/28 11:21:05;;;;;;;0.00;0.00;;;;;;;;;;4998512;28;20254;-70
2022/04/28 11:23:34;;;;;;;0.00;0.00;;;;;;;;;;5000862;28;20228;-71
2022/04/28 11:26:03;;;;;;;0.00;0.00;;;;;;;;;;5000102;28;20215;-70
2022/04/28 11:28:31;;;;;;;0.00;0.00;;;;;;;;;;5002245;28;20263;-70
2022/04/28 11:30:59;;;;;;;0.00;0.00;;;;;;;;;;4998444;28;20215;-70
2022/04/28 11:33:27;;;;;;;0.00;0.00;;;;;;;;;;4997412;28;20216;-72
2022/04/28 11:35:55;;;;;;;0.00;0.00;;;;;;;;;;4995378;28;20209;-71
2022/04/28 11:38:26;;;;;;;0.00;0.00;;;;;;;;;;5000431;28;20228;-72
2022/04/28 11:41:00;;;;;;;0.00;0.00;;;;;;;;;;5001111;28;20235;-71
2022/04/28 11:43:34;;;;;;;0.00;0.00;;;;;;;;;;5017479;28;20230;-70
2022/04/28 11:46:02;;;;;;;0.00;0.00;;;;;;;;;;5000627;28;20670;-71
2022/04/28 11:48:29;;;;;;;0.00;0.00;;;;;;;;;;4997533;28;20266;-71
2022/04/28 11:51:02;;;;;;;0.00;0.00;;;;;;;;;;5000634;28;20201;-72
2022/04/28 11:53:40;;;;;;;0.00;0.00;;;;;;;;;;4995539;28;20316;-71
2022/04/28 11:56:17;;;;;;;0.00;0.00;;;;;;;;;;4999432;28;20201;-71
2022/04/28 11:58:49;;;;;;;0.00;0.00;;;;;;;;;;4992275;28;20211;-72
2022/04/28 12:01:17;;;;;;;0.00;0.00;;;;;;;;;;4996536;28;20201;-71
2022/04/28 12:03:52;;;;;;;0.00;0.00;;;;;;;;;;5001450;28;20221;-70
2022/04/28 12:06:20;;;;;;;0.00;0.00;;;;;;;;;;5016637;28;20209;-70
2022/04/28 12:08:52;;;;;;;0.00;0.00;;;;;;;;;;4999662;28;20205;-70
2022/04/28 12:14:26;;;;;;;0.00;0.00;;;;;;;;;;5001186;28;20217;-70
2022/04/28 12:19:47;;;;;;;0.00;0.00;;;;;;;;;;5015579;28;20192;-69
2022/04/28 12:22:14;;;;;;;0.00;0.00;;;;;;;;;;5000747;28;20288;-72
2022/04/28 12:24:45;;;;;;;0.00;0.00;;;;;;;;;;5002677;28;20216;-70
2022/04/28 12:27:12;;;;;;;0.00;0.00;;;;;;;;;;4997600;28;20197;-71
2022/04/28 12:29:53;;;;;;;0.00;0.00;;;;;;;;;;5000530;28;20201;-70
2022/04/28 12:32:21;;;;;;;0.00;0.00;;;;;;;;;;4999187;28;20696;-70
2022/04/28 12:34:58;;;;;;;0.00;0.00;;;;;;;;;;5001416;28;20315;-69
2022/04/28 12:37:26;;;;;;;0.00;0.00;;;;;;;;;;4998224;28;20270;-70
2022/04/28 12:40:01;;;;;;;0.00;0.00;;;;;;;;;;4985785;28;20213;-71
2022/04/28 12:42:30;;;;;;;0.00;0.00;;;;;;;;;;4996306;28;20197;-70
2022/04/28 12:45:01;;;;;;;0.00;0.00;;;;;;;;;;4996844;28;20226;-71
2022/04/28 12:51:36;;;;;;;0.00;0.00;;;;;;;;;;5002958;28;20251;-72
2022/04/28 12:57:10;;;;;;;0.00;0.00;;;;;;;;;;4997504;28;20331;-72
2022/04/28 12:59:38;;;;;;;0.00;0.00;;;;;;;;;;4997956;28;20249;-71
2022/04/28 13:02:07;;;;;;;0.00;0.00;;;;;;;;;;4994084;28;20220;-71
2022/04/28 13:04:36;;;;;;;0.00;0.00;;;;;;;;;;5001154;28;20288;-71
2022/04/28 13:07:04;;;;;;;0.00;0.00;;;;;;;;;;4990116;28;20201;-71
2022/04/28 13:09:32;;;;;;;0.00;0.00;;;;;;;;;;4992761;28;20220;-72
2022/04/28 13:11:59;;;;;;;0.00;0.00;;;;;;;;;;4994339;28;20224;-71
2022/04/28 13:14:27;;;;;;;0.00;0.00;;;;;;;;;;5001471;28;20216;-71
2022/04/28 13:16:54;;;;;;;0.00;0.00;;;;;;;;;;4998601;28;20201;-71
2022/04/28 13:19:23;;;;;;;0.00;0.00;;;;;;;;;;4999999;28;20204;-71
2022/04/28 13:21:50;;;;;;;0.00;0.00;;;;;;;;;;4995687;28;20205;-71
2022/04/28 13:24:18;;;;;;;0.00;0.00;;;;;;;;;;4995196;28;20228;-71
2022/04/28 13:26:46;;;;;;;0.00;0.00;;;;;;;;;;4998178;28;20228;-71
2022/04/28 13:29:13;;;;;;;0.00;0.00;;;;;;;;;;4999856;28;20205;-71
2022/04/28 13:31:40;;;;;;;0.00;0.00;;;;;;;;;;5004713;28;20220;-71
2022/04/28 13:34:09;;;;;;;0.00;0.00;;;;;;;;;;4996991;28;20208;-71
2022/04/28 13:36:38;;;;;;;0.00;0.00;;;;;;;;;;5002421;28;20205;-70
2022/04/28 13:39:05;;;;;;;0.00;0.00;;;;;;;;;;5003334;28;20212;-69
2022/04/28 13:41:33;;;;;;;0.00;0.00;;;;;;;;;;5001457;28;20204;-70
2022/04/28 13:44:01;;;;;;;0.00;0.00;;;;;;;;;;4994149;28;20278;-70
2022/04/28 13:46:28;;;;;;;0.00;0.00;;;;;;;;;;5000374;28;20223;-71
2022/04/28 13:48:55;;;;;;;0.00;0.00;;;;;;;;;;4997777;28;20214;-71
2022/04/28 13:51:23;;;;;;;0.00;0.00;;;;;;;;;;4999859;28;20205;-71
2022/04/28 13:53:52;;;;;;;0.00;0.00;;;;;;;;;;4997026;28;20234;-71
2022/04/28 13:56:21;;;;;;;0.00;0.00;;;;;;;;;;4996261;28;20258;-70
2022/04/28 13:58:49;;;;;;;0.00;0.00;;;;;;;;;;5000229;28;20589;-71
2022/04/28 14:01:17;;;;;;;0.00;0.00;;;;;;;;;;4995325;28;20222;-72
2022/04/28 14:03:44;;;;;;;0.00;0.00;;;;;;;;;;4986250;28;20279;-70
2022/04/28 14:06:12;;;;;;;0.00;0.00;;;;;;;;;;5000369;28;20274;-71
2022/04/28 14:08:39;;;;;;;0.00;0.00;;;;;;;;;;4998261;28;20215;-71
2022/04/28 14:11:08;;;;;;;0.00;0.00;;;;;;;;;;4995740;28;20617;-71
2022/04/28 14:13:36;;;;;;;0.00;0.00;;;;;;;;;;4996705;28;20213;-72
2022/04/28 14:16:04;;;;;;;0.00;0.00;;;;;;;;;;4999141;28;20295;-72
2022/04/28 14:18:32;;;;;;;0.00;0.00;;;;;;;;;;5002823;28;20202;-72
2022/04/28 14:20:59;;;;;;;0.10;0.10;;;;;;;;;;4993982;28;20232;-85
2022/04/28 14:23:27;;;;;;;0.00;0.00;;;;;;;;;;4987782;28;20280;-72
2022/04/28 14:25:55;;;;;;;0.00;0.00;;;;;;;;;;4994149;28;20201;-72
2022/04/28 14:28:24;;;;;;;0.00;0.00;;;;;;;;;;5000889;28;20200;-71
2022/04/28 14:30:52;;;;;;;0.00;0.00;;;;;;;;;;5003154;28;20196;-72
2022/04/28 14:33:19;;;;;;;0.00;0.00;;;;;;;;;;5004100;28;20310;-71
2022/04/28 14:35:46;;;;;;;0.00;0.00;;;;;;;;;;5003860;28;20205;-72
2022/04/28 14:38:14;;;;;;;0.00;0.00;;;;;;;;;;5002769;28;20242;-71
2022/04/28 14:40:41;;;;;;;0.00;0.00;;;;;;;;;;5002203;28;20204;-72
2022/04/28 14:43:09;;;;;;;0.00;0.00;;;;;;;;;;5002721;28;20207;-71
2022/04/28 14:45:38;;;;;;;0.00;0.00;;;;;;;;;;4995546;28;20208;-71
2022/04/28 14:48:06;;;;;;;0.10;0.10;;;;;;;;;;4998332;28;20267;-71
2022/04/28 14:53:18;;;;;;;0.00;0.00;;;;;;;;;;5000923;28;20763;-72
2022/04/28 14:55:46;;;;;;;0.00;0.00;;;;;;;;;;4996508;28;20220;-72
2022/04/28 14:58:17;;;;;;;0.00;0.00;;;;;;;;;;4997129;28;20207;-71
2022/04/28 15:00:46;;;;;;;0.00;0.00;;;18.50;99.90;;;;;;4998638;28;20290;-70
2022/04/28 15:03:13;;;;;;;0.00;0.00;;;18.40;99.90;;;;;;5004825;28;20198;-71
2022/04/28 15:05:40;;;;;;;0.00;0.00;;;18.30;99.90;;;;;;5002250;28;20303;-71
2022/04/28 15:08:08;;;;;;;0.00;0.00;;;18.40;99.90;;;;;;4997851;28;20220;-71
2022/04/28 15:10:35;;;;;;;0.00;0.00;;;18.20;99.90;;;;;;5003895;28;20196;-71
2022/04/28 15:13:02;;;;;;;0.00;0.00;;;18.20;99.90;;;;;;5003471;28;20220;-71
2022/04/28 15:15:29;;;;;;;0.00;0.00;;;18.10;99.90;;;;;;5000611;28;20232;-71
2022/04/28 15:17:57;;;;;;;0.00;0.00;;;18.00;99.90;;;;;;4998337;28;20227;-70
2022/04/28 15:20:24;;;;;;;0.00;0.00;;;18.00;99.90;;;;;;4995483;28;20274;-70
2022/04/28 15:22:51;;;;;;;0.00;0.00;;;18.00;99.90;;;;;;4999496;28;20201;-71
2022/04/28 15:25:19;;;;;;;0.00;0.00;;;18.00;99.90;;;;;;4995873;28;20232;-70
2022/04/28 15:27:46;;;;;;;0.00;0.00;;;17.90;99.90;;;;;;5001997;28;20201;-70
2022/04/28 15:30:14;;;;;;;0.00;0.00;;;17.90;99.90;;;;;;4999834;28;20205;-72
2022/04/28 15:32:41;;;;;;;0.00;0.00;;;17.90;99.90;;;;;;4999266;28;20222;-72
2022/04/28 15:35:10;;;;;;;0.00;0.00;;;17.90;99.90;;;;;;5002162;28;20247;-71
2022/04/28 15:37:37;;;;;;;0.00;0.00;;;18.00;99.90;;;;;;5000198;28;20291;-69
2022/04/28 15:40:09;;;;;;;0.00;0.00;;;18.00;99.90;;;;;;4998920;28;20213;-71
2022/04/28 15:42:36;;;;;;;0.00;0.00;;;17.90;99.90;;;;;;4997213;28;20205;-72
2022/04/28 15:45:05;;;;;;;0.00;0.00;;;17.90;99.90;;;;;;4998403;28;20282;-74
2022/04/28 15:47:32;;;;;;;0.00;0.00;;;17.90;99.90;;;;;;4997670;28;20217;-73
2022/04/28 15:49:59;;;;;;;0.00;0.00;;;17.70;99.90;;;;;;5002084;28;20236;-73
2022/04/28 15:52:28;;;;;;;0.00;0.00;;;17.80;99.90;;;;;;4998248;28;20640;-72